sensor_id;sensor_type;location;lat;lon;timestamp;P1;durP1;ratioP1;P2;durP2;ratioP2
39788;SDS011;25478;42.626;23.320;2022-10-30T00:01:57;3.90;;;2.07;;
39788;SDS011;25478;42.626;23.320;2022-10-30T00:04:23;4.17;;;2.30;;
39788;SDS011;25478;42.626;23.320;2022-10-30T00:06:49;6.13;;;1.80;;
39788;SDS011;25478;42.626;23.320;2022-10-30T00:09:15;3.93;;;2.00;;
39788;SDS011;25478;42.626;23.320;2022-10-30T00:11:40;3.93;;;1.67;;
39788;SDS011;25478;42.626;23.320;2022-10-30T00:14:06;3.63;;;2.00;;
39788;SDS011;25478;42.626;23.320;2022-10-30T00:16:32;5.63;;;2.03;;
39788;SDS011;25478;42.626;23.320;2022-10-30T00:18:59;10.70;;;3.60;;
39788;SDS011;25478;42.626;23.320;2022-10-30T00:21:25;18.43;;;6.10;;
39788;SDS011;25478;42.626;23.320;2022-10-30T00:23:51;10.40;;;4.30;;
39788;SDS011;25478;42.626;23.320;2022-10-30T00:26:19;6.33;;;2.90;;
39788;SDS011;25478;42.626;23.320;2022-10-30T00:28:49;3.97;;;1.90;;
39788;SDS011;25478;42.626;23.320;2022-10-30T00:31:19;5.87;;;2.20;;
39788;SDS011;25478;42.626;23.320;2022-10-30T00:33:52;3.97;;;1.73;;
39788;SDS011;25478;42.626;23.320;2022-10-30T00:36:19;3.87;;;2.10;;
39788;SDS011;25478;42.626;23.320;2022-10-30T00:38:45;2.60;;;1.70;;
39788;SDS011;25478;42.626;23.320;2022-10-30T00:41:14;3.37;;;1.80;;
39788;SDS011;25478;42.626;23.320;2022-10-30T00:43:44;3.13;;;1.58;;
39788;SDS011;25478;42.626;23.320;2022-10-30T00:46:30;3.07;;;1.63;;
39788;SDS011;25478;42.626;23.320;2022-10-30T00:51:33;4.93;;;2.20;;
39788;SDS011;25478;42.626;23.320;2022-10-30T00:54:01;4.03;;;2.23;;
39788;SDS011;25478;42.626;23.320;2022-10-30T00:56:29;3.20;;;2.00;;
39788;SDS011;25478;42.626;23.320;2022-10-30T00:58:56;3.03;;;2.07;;
39788;SDS011;25478;42.626;23.320;2022-10-30T01:01:26;3.97;;;2.50;;
39788;SDS011;25478;42.626;23.320;2022-10-30T01:03:57;3.53;;;2.60;;
39788;SDS011;25478;42.626;23.320;2022-10-30T01:06:24;5.37;;;2.57;;
39788;SDS011;25478;42.626;23.320;2022-10-30T01:08:52;5.10;;;3.03;;
39788;SDS011;25478;42.626;23.320;2022-10-30T01:11:19;3.90;;;2.60;;
39788;SDS011;25478;42.626;23.320;2022-10-30T01:19:21;4.40;;;2.23;;
39788;SDS011;25478;42.626;23.320;2022-10-30T01:24:34;4.30;;;2.20;;
39788;SDS011;25478;42.626;23.320;2022-10-30T01:29:59;3.43;;;1.77;;
39788;SDS011;25478;42.626;23.320;2022-10-30T01:38:22;2.70;;;1.60;;
39788;SDS011;25478;42.626;23.320;2022-10-30T01:40:53;2.40;;;1.40;;
39788;SDS011;25478;42.626;23.320;2022-10-30T01:43:20;4.77;;;1.70;;
39788;SDS011;25478;42.626;23.320;2022-10-30T02:00:10;5.47;;;2.50;;
39788;SDS011;25478;42.626;23.320;2022-10-30T02:02:39;3.63;;;2.30;;
39788;SDS011;25478;42.626;23.320;2022-10-30T02:05:08;4.00;;;1.93;;
39788;SDS011;25478;42.626;23.320;2022-10-30T02:07:36;4.97;;;2.13;;
39788;SDS011;25478;42.626;23.320;2022-10-30T02:10:03;3.27;;;2.10;;
39788;SDS011;25478;42.626;23.320;2022-10-30T02:12:29;3.13;;;2.07;;
39788;SDS011;25478;42.626;23.320;2022-10-30T02:14:57;2.83;;;1.90;;
39788;SDS011;25478;42.626;23.320;2022-10-30T02:17:25;3.57;;;1.97;;
39788;SDS011;25478;42.626;23.320;2022-10-30T02:19:52;3.83;;;2.20;;
39788;SDS011;25478;42.626;23.320;2022-10-30T02:22:17;3.83;;;1.90;;
39788;SDS011;25478;42.626;23.320;2022-10-30T02:24:43;4.03;;;1.90;;
39788;SDS011;25478;42.626;23.320;2022-10-30T02:27:09;8.43;;;4.33;;
39788;SDS011;25478;42.626;23.320;2022-10-30T02:29:38;13.87;;;5.63;;
39788;SDS011;25478;42.626;23.320;2022-10-30T02:32:04;7.13;;;4.10;;
39788;SDS011;25478;42.626;23.320;2022-10-30T02:34:30;5.23;;;3.60;;
39788;SDS011;25478;42.626;23.320;2022-10-30T02:36:56;7.60;;;3.80;;
39788;SDS011;25478;42.626;23.320;2022-10-30T02:39:21;5.27;;;3.80;;
39788;SDS011;25478;42.626;23.320;2022-10-30T02:41:47;5.50;;;3.63;;
39788;SDS011;25478;42.626;23.320;2022-10-30T02:44:13;5.03;;;3.03;;
39788;SDS011;25478;42.626;23.320;2022-10-30T02:46:38;4.30;;;2.97;;
39788;SDS011;25478;42.626;23.320;2022-10-30T02:49:04;3.80;;;2.57;;
39788;SDS011;25478;42.626;23.320;2022-10-30T02:51:30;5.70;;;3.10;;
39788;SDS011;25478;42.626;23.320;2022-10-30T02:53:56;5.07;;;2.80;;
39788;SDS011;25478;42.626;23.320;2022-10-30T02:56:24;5.00;;;3.00;;
39788;SDS011;25478;42.626;23.320;2022-10-30T02:58:51;6.17;;;3.20;;
39788;SDS011;25478;42.626;23.320;2022-10-30T03:01:18;4.53;;;3.00;;
39788;SDS011;25478;42.626;23.320;2022-10-30T03:03:44;4.30;;;2.93;;
39788;SDS011;25478;42.626;23.320;2022-10-30T03:06:11;5.23;;;3.30;;
39788;SDS011;25478;42.626;23.320;2022-10-30T03:08:39;5.70;;;3.30;;
39788;SDS011;25478;42.626;23.320;2022-10-30T03:11:10;4.53;;;2.90;;
39788;SDS011;25478;42.626;23.320;2022-10-30T03:13:39;5.80;;;3.40;;
39788;SDS011;25478;42.626;23.320;2022-10-30T03:16:06;8.20;;;4.77;;
39788;SDS011;25478;42.626;23.320;2022-10-30T03:18:34;9.23;;;6.07;;
39788;SDS011;25478;42.626;23.320;2022-10-30T03:21:06;11.93;;;7.50;;
39788;SDS011;25478;42.626;23.320;2022-10-30T03:23:33;8.13;;;6.20;;
39788;SDS011;25478;42.626;23.320;2022-10-30T03:26:01;10.00;;;6.70;;
39788;SDS011;25478;42.626;23.320;2022-10-30T03:28:29;10.13;;;7.20;;
39788;SDS011;25478;42.626;23.320;2022-10-30T03:31:06;10.13;;;6.80;;
39788;SDS011;25478;42.626;23.320;2022-10-30T03:33:33;10.53;;;7.17;;
39788;SDS011;25478;42.626;23.320;2022-10-30T03:35:59;11.90;;;7.73;;
39788;SDS011;25478;42.626;23.320;2022-10-30T03:38:25;10.50;;;7.57;;
39788;SDS011;25478;42.626;23.320;2022-10-30T03:40:51;15.93;;;7.90;;
39788;SDS011;25478;42.626;23.320;2022-10-30T03:43:18;19.97;;;9.70;;
39788;SDS011;25478;42.626;23.320;2022-10-30T03:45:48;15.17;;;8.47;;
39788;SDS011;25478;42.626;23.320;2022-10-30T03:48:16;9.27;;;4.63;;
39788;SDS011;25478;42.626;23.320;2022-10-30T03:50:43;8.13;;;3.83;;
39788;SDS011;25478;42.626;23.320;2022-10-30T03:53:10;7.63;;;4.13;;
39788;SDS011;25478;42.626;23.320;2022-10-30T03:55:35;6.10;;;3.47;;
39788;SDS011;25478;42.626;23.320;2022-10-30T03:58:01;5.60;;;4.20;;
39788;SDS011;25478;42.626;23.320;2022-10-30T04:00:26;9.70;;;6.50;;
39788;SDS011;25478;42.626;23.320;2022-10-30T04:02:55;5.80;;;4.20;;
39788;SDS011;25478;42.626;23.320;2022-10-30T04:05:23;7.30;;;4.70;;
39788;SDS011;25478;42.626;23.320;2022-10-30T04:07:55;6.70;;;4.40;;
39788;SDS011;25478;42.626;23.320;2022-10-30T04:10:23;5.00;;;3.60;;
39788;SDS011;25478;42.626;23.320;2022-10-30T04:12:49;5.00;;;3.50;;
39788;SDS011;25478;42.626;23.320;2022-10-30T04:15:15;6.67;;;3.53;;
39788;SDS011;25478;42.626;23.320;2022-10-30T04:17:46;5.77;;;3.23;;
39788;SDS011;25478;42.626;23.320;2022-10-30T04:20:12;5.87;;;4.07;;
39788;SDS011;25478;42.626;23.320;2022-10-30T04:22:38;7.27;;;3.47;;
39788;SDS011;25478;42.626;23.320;2022-10-30T04:25:04;5.83;;;3.80;;
39788;SDS011;25478;42.626;23.320;2022-10-30T04:27:31;7.67;;;4.07;;
39788;SDS011;25478;42.626;23.320;2022-10-30T04:30:04;5.80;;;3.87;;
39788;SDS011;25478;42.626;23.320;2022-10-30T04:32:30;8.13;;;3.97;;
39788;SDS011;25478;42.626;23.320;2022-10-30T04:34:56;5.50;;;3.60;;
39788;SDS011;25478;42.626;23.320;2022-10-30T04:37:23;6.73;;;3.73;;
39788;SDS011;25478;42.626;23.320;2022-10-30T04:39:48;6.33;;;3.60;;
39788;SDS011;25478;42.626;23.320;2022-10-30T04:42:19;5.50;;;3.30;;
39788;SDS011;25478;42.626;23.320;2022-10-30T04:44:45;5.93;;;3.53;;
39788;SDS011;25478;42.626;23.320;2022-10-30T04:47:10;5.50;;;3.07;;
39788;SDS011;25478;42.626;23.320;2022-10-30T04:49:36;4.97;;;3.03;;
39788;SDS011;25478;42.626;23.320;2022-10-30T04:52:02;4.67;;;2.70;;
39788;SDS011;25478;42.626;23.320;2022-10-30T04:54:27;5.07;;;2.53;;
39788;SDS011;25478;42.626;23.320;2022-10-30T04:56:53;9.83;;;3.07;;
39788;SDS011;25478;42.626;23.320;2022-10-30T04:59:20;5.90;;;2.90;;
39788;SDS011;25478;42.626;23.320;2022-10-30T05:01:45;5.23;;;3.07;;
39788;SDS011;25478;42.626;23.320;2022-10-30T05:04:12;8.83;;;3.10;;
39788;SDS011;25478;42.626;23.320;2022-10-30T05:06:39;5.27;;;3.03;;
39788;SDS011;25478;42.626;23.320;2022-10-30T05:09:06;5.23;;;3.33;;
39788;SDS011;25478;42.626;23.320;2022-10-30T05:11:38;7.97;;;3.83;;
39788;SDS011;25478;42.626;23.320;2022-10-30T05:14:04;4.93;;;3.53;;
39788;SDS011;25478;42.626;23.320;2022-10-30T05:16:30;7.20;;;4.13;;
39788;SDS011;25478;42.626;23.320;2022-10-30T05:18:57;5.77;;;3.77;;
39788;SDS011;25478;42.626;23.320;2022-10-30T05:21:23;7.07;;;4.20;;
39788;SDS011;25478;42.626;23.320;2022-10-30T05:23:48;8.33;;;4.30;;
39788;SDS011;25478;42.626;23.320;2022-10-30T05:26:14;6.90;;;4.20;;
39788;SDS011;25478;42.626;23.320;2022-10-30T05:28:39;8.10;;;4.37;;
39788;SDS011;25478;42.626;23.320;2022-10-30T05:31:07;7.47;;;4.03;;
39788;SDS011;25478;42.626;23.320;2022-10-30T05:34:04;6.30;;;4.20;;
39788;SDS011;25478;42.626;23.320;2022-10-30T05:36:30;7.13;;;4.00;;
39788;SDS011;25478;42.626;23.320;2022-10-30T05:38:55;7.13;;;3.97;;
39788;SDS011;25478;42.626;23.320;2022-10-30T05:41:36;6.20;;;3.77;;
39788;SDS011;25478;42.626;23.320;2022-10-30T05:44:03;6.13;;;3.70;;
39788;SDS011;25478;42.626;23.320;2022-10-30T05:46:29;6.23;;;3.90;;
39788;SDS011;25478;42.626;23.320;2022-10-30T05:49:04;7.28;;;3.90;;
39788;SDS011;25478;42.626;23.320;2022-10-30T05:51:29;6.23;;;4.00;;
39788;SDS011;25478;42.626;23.320;2022-10-30T05:54:01;8.07;;;5.07;;
39788;SDS011;25478;42.626;23.320;2022-10-30T05:56:28;9.87;;;5.27;;
39788;SDS011;25478;42.626;23.320;2022-10-30T05:58:55;9.90;;;5.70;;
39788;SDS011;25478;42.626;23.320;2022-10-30T06:01:21;10.00;;;6.30;;
39788;SDS011;25478;42.626;23.320;2022-10-30T06:03:51;13.47;;;8.23;;
39788;SDS011;25478;42.626;23.320;2022-10-30T06:06:17;11.63;;;7.20;;
39788;SDS011;25478;42.626;23.320;2022-10-30T06:08:43;15.50;;;10.63;;
39788;SDS011;25478;42.626;23.320;2022-10-30T06:11:40;15.20;;;8.70;;
39788;SDS011;25478;42.626;23.320;2022-10-30T06:14:09;15.10;;;8.70;;
39788;SDS011;25478;42.626;23.320;2022-10-30T06:16:47;15.23;;;8.83;;
39788;SDS011;25478;42.626;23.320;2022-10-30T06:19:15;15.40;;;9.63;;
39788;SDS011;25478;42.626;23.320;2022-10-30T06:21:41;14.40;;;9.37;;
39788;SDS011;25478;42.626;23.320;2022-10-30T06:24:13;16.17;;;9.80;;
39788;SDS011;25478;42.626;23.320;2022-10-30T06:29:28;16.83;;;11.83;;
39788;SDS011;25478;42.626;23.320;2022-10-30T06:31:55;18.83;;;13.33;;
39788;SDS011;25478;42.626;23.320;2022-10-30T06:34:20;17.57;;;13.40;;
39788;SDS011;25478;42.626;23.320;2022-10-30T06:36:46;20.73;;;13.33;;
39788;SDS011;25478;42.626;23.320;2022-10-30T06:39:11;17.43;;;12.80;;
39788;SDS011;25478;42.626;23.320;2022-10-30T06:41:51;21.17;;;13.17;;
39788;SDS011;25478;42.626;23.320;2022-10-30T06:44:43;19.53;;;13.40;;
39788;SDS011;25478;42.626;23.320;2022-10-30T06:47:09;20.23;;;13.47;;
39788;SDS011;25478;42.626;23.320;2022-10-30T06:49:34;21.83;;;14.33;;
39788;SDS011;25478;42.626;23.320;2022-10-30T06:52:00;19.57;;;14.90;;
39788;SDS011;25478;42.626;23.320;2022-10-30T06:54:26;17.53;;;13.63;;
39788;SDS011;25478;42.626;23.320;2022-10-30T06:57:03;21.93;;;14.53;;
39788;SDS011;25478;42.626;23.320;2022-10-30T06:59:29;18.37;;;14.57;;
39788;SDS011;25478;42.626;23.320;2022-10-30T07:02:08;21.33;;;15.40;;
39788;SDS011;25478;42.626;23.320;2022-10-30T07:04:56;23.27;;;17.53;;
39788;SDS011;25478;42.626;23.320;2022-10-30T07:07:21;24.13;;;17.70;;
39788;SDS011;25478;42.626;23.320;2022-10-30T07:09:47;23.60;;;17.47;;
39788;SDS011;25478;42.626;23.320;2022-10-30T07:12:15;24.57;;;17.47;;
39788;SDS011;25478;42.626;23.320;2022-10-30T07:15:09;23.15;;;17.67;;
39788;SDS011;25478;42.626;23.320;2022-10-30T07:18:01;27.30;;;18.73;;
39788;SDS011;25478;42.626;23.320;2022-10-30T07:20:29;24.27;;;18.43;;
39788;SDS011;25478;42.626;23.320;2022-10-30T07:22:58;23.13;;;18.00;;
39788;SDS011;25478;42.626;23.320;2022-10-30T07:25:23;26.03;;;18.93;;
39788;SDS011;25478;42.626;23.320;2022-10-30T07:27:54;26.10;;;19.97;;
39788;SDS011;25478;42.626;23.320;2022-10-30T07:30:39;23.83;;;18.93;;
39788;SDS011;25478;42.626;23.320;2022-10-30T07:33:27;26.53;;;18.53;;
39788;SDS011;25478;42.626;23.320;2022-10-30T07:36:15;26.77;;;18.93;;
39788;SDS011;25478;42.626;23.320;2022-10-30T07:38:44;27.53;;;18.60;;
39788;SDS011;25478;42.626;23.320;2022-10-30T07:41:28;22.85;;;17.75;;
39788;SDS011;25478;42.626;23.320;2022-10-30T07:44:13;26.23;;;18.20;;
39788;SDS011;25478;42.626;23.320;2022-10-30T07:46:57;25.88;;;18.27;;
39788;SDS011;25478;42.626;23.320;2022-10-30T07:49:41;27.02;;;18.73;;
39788;SDS011;25478;42.626;23.320;2022-10-30T07:52:07;26.23;;;17.47;;
39788;SDS011;25478;42.626;23.320;2022-10-30T07:54:32;20.83;;;16.80;;
39788;SDS011;25478;42.626;23.320;2022-10-30T07:57:10;22.50;;;16.53;;
39788;SDS011;25478;42.626;23.320;2022-10-30T08:00:05;23.40;;;16.50;;
39788;SDS011;25478;42.626;23.320;2022-10-30T08:02:38;24.60;;;16.60;;
39788;SDS011;25478;42.626;23.320;2022-10-30T08:05:20;21.00;;;16.17;;
39788;SDS011;25478;42.626;23.320;2022-10-30T08:08:06;20.70;;;15.60;;
39788;SDS011;25478;42.626;23.320;2022-10-30T08:10:32;21.60;;;16.13;;
39788;SDS011;25478;42.626;23.320;2022-10-30T08:12:59;18.63;;;15.50;;
39788;SDS011;25478;42.626;23.320;2022-10-30T08:15:25;23.67;;;15.93;;
39788;SDS011;25478;42.626;23.320;2022-10-30T08:17:52;21.13;;;15.70;;
39788;SDS011;25478;42.626;23.320;2022-10-30T08:20:19;25.37;;;16.03;;
39788;SDS011;25478;42.626;23.320;2022-10-30T08:25:20;22.90;;;16.03;;
39788;SDS011;25478;42.626;23.320;2022-10-30T08:27:49;22.83;;;15.97;;
39788;SDS011;25478;42.626;23.320;2022-10-30T08:30:21;25.90;;;16.37;;
39788;SDS011;25478;42.626;23.320;2022-10-30T08:32:50;31.83;;;17.83;;
39788;SDS011;25478;42.626;23.320;2022-10-30T08:35:33;19.85;;;15.40;;
39788;SDS011;25478;42.626;23.320;2022-10-30T08:38:01;20.67;;;14.87;;
39788;SDS011;25478;42.626;23.320;2022-10-30T08:40:30;21.33;;;15.30;;
39788;SDS011;25478;42.626;23.320;2022-10-30T08:43:01;24.43;;;15.00;;
39788;SDS011;25478;42.626;23.320;2022-10-30T08:45:27;20.80;;;14.70;;
39788;SDS011;25478;42.626;23.320;2022-10-30T08:48:04;24.53;;;14.20;;
39788;SDS011;25478;42.626;23.320;2022-10-30T08:50:35;22.30;;;14.43;;
39788;SDS011;25478;42.626;23.320;2022-10-30T08:53:02;19.67;;;14.30;;
39788;SDS011;25478;42.626;23.320;2022-10-30T08:55:29;22.00;;;15.67;;
39788;SDS011;25478;42.626;23.320;2022-10-30T08:57:59;19.03;;;14.33;;
39788;SDS011;25478;42.626;23.320;2022-10-30T09:00:25;18.97;;;13.53;;
39788;SDS011;25478;42.626;23.320;2022-10-30T09:03:21;18.80;;;14.03;;
39788;SDS011;25478;42.626;23.320;2022-10-30T09:06:16;19.93;;;13.80;;
39788;SDS011;25478;42.626;23.320;2022-10-30T09:09:19;19.07;;;14.67;;
39788;SDS011;25478;42.626;23.320;2022-10-30T09:11:49;20.83;;;14.57;;
39788;SDS011;25478;42.626;23.320;2022-10-30T09:14:15;24.88;;;15.30;;
39788;SDS011;25478;42.626;23.320;2022-10-30T09:16:40;23.80;;;14.70;;
39788;SDS011;25478;42.626;23.320;2022-10-30T09:19:08;25.38;;;15.85;;
39788;SDS011;25478;42.626;23.320;2022-10-30T09:21:35;23.73;;;15.20;;
39788;SDS011;25478;42.626;23.320;2022-10-30T09:24:01;20.35;;;14.77;;
39788;SDS011;25478;42.626;23.320;2022-10-30T09:26:46;19.92;;;15.32;;
39788;SDS011;25478;42.626;23.320;2022-10-30T09:29:19;20.65;;;14.82;;
39788;SDS011;25478;42.626;23.320;2022-10-30T09:32:04;23.20;;;16.05;;
39788;SDS011;25478;42.626;23.320;2022-10-30T09:34:43;22.48;;;15.77;;
39788;SDS011;25478;42.626;23.320;2022-10-30T09:37:19;22.58;;;15.50;;
39788;SDS011;25478;42.626;23.320;2022-10-30T09:39:49;19.73;;;15.30;;
39788;SDS011;25478;42.626;23.320;2022-10-30T09:42:51;21.90;;;15.25;;
39788;SDS011;25478;42.626;23.320;2022-10-30T09:51:36;27.95;;;14.52;;
39788;SDS011;25478;42.626;23.320;2022-10-30T09:56:58;21.67;;;14.40;;
39788;SDS011;25478;42.626;23.320;2022-10-30T10:02:02;22.48;;;15.40;;
39788;SDS011;25478;42.626;23.320;2022-10-30T10:04:43;21.50;;;15.77;;
39788;SDS011;25478;42.626;23.320;2022-10-30T10:07:31;23.60;;;15.73;;
39788;SDS011;25478;42.626;23.320;2022-10-30T10:10:45;20.25;;;14.15;;
39788;SDS011;25478;42.626;23.320;2022-10-30T10:13:28;20.88;;;13.75;;
39788;SDS011;25478;42.626;23.320;2022-10-30T10:18:36;23.45;;;15.00;;
39788;SDS011;25478;42.626;23.320;2022-10-30T10:21:11;23.45;;;14.88;;
39788;SDS011;25478;42.626;23.320;2022-10-30T10:23:46;23.27;;;14.10;;
39788;SDS011;25478;42.626;23.320;2022-10-30T10:43:34;13.07;;;8.63;;
39788;SDS011;25478;42.626;23.320;2022-10-30T10:46:12;10.88;;;8.15;;
39788;SDS011;25478;42.626;23.320;2022-10-30T10:51:39;21.52;;;10.00;;
39788;SDS011;25478;42.626;23.320;2022-10-30T10:56:39;15.15;;;8.02;;
39788;SDS011;25478;42.626;23.320;2022-10-30T10:59:12;13.00;;;8.18;;
39788;SDS011;25478;42.626;23.320;2022-10-30T11:01:39;13.65;;;7.78;;
39788;SDS011;25478;42.626;23.320;2022-10-30T11:06:34;12.18;;;7.95;;
39788;SDS011;25478;42.626;23.320;2022-10-30T11:11:48;11.05;;;7.00;;
39788;SDS011;25478;42.626;23.320;2022-10-30T11:19:35;10.40;;;6.00;;
39788;SDS011;25478;42.626;23.320;2022-10-30T11:22:01;10.68;;;6.15;;
39788;SDS011;25478;42.626;23.320;2022-10-30T11:24:35;22.08;;;6.45;;
39788;SDS011;25478;42.626;23.320;2022-10-30T11:29:57;11.25;;;5.30;;
39788;SDS011;25478;42.626;23.320;2022-10-30T11:32:27;8.70;;;5.15;;
39788;SDS011;25478;42.626;23.320;2022-10-30T11:37:37;8.57;;;4.60;;
39788;SDS011;25478;42.626;23.320;2022-10-30T11:40:06;12.13;;;5.63;;
39788;SDS011;25478;42.626;23.320;2022-10-30T11:42:37;8.63;;;4.90;;
39788;SDS011;25478;42.626;23.320;2022-10-30T11:45:12;10.30;;;4.82;;
39788;SDS011;25478;42.626;23.320;2022-10-30T11:47:40;7.22;;;4.60;;
39788;SDS011;25478;42.626;23.320;2022-10-30T11:50:13;8.15;;;4.70;;
39788;SDS011;25478;42.626;23.320;2022-10-30T11:52:39;5.83;;;4.53;;
39788;SDS011;25478;42.626;23.320;2022-10-30T11:55:12;7.55;;;4.10;;
39788;SDS011;25478;42.626;23.320;2022-10-30T11:57:44;6.68;;;4.10;;
39788;SDS011;25478;42.626;23.320;2022-10-30T12:02:48;8.07;;;4.28;;
39788;SDS011;25478;42.626;23.320;2022-10-30T12:08:23;7.93;;;4.00;;
39788;SDS011;25478;42.626;23.320;2022-10-30T12:13:18;8.25;;;4.20;;
39788;SDS011;25478;42.626;23.320;2022-10-30T12:15:46;5.80;;;4.30;;
39788;SDS011;25478;42.626;23.320;2022-10-30T12:18:20;7.10;;;4.13;;
39788;SDS011;25478;42.626;23.320;2022-10-30T12:20:50;8.82;;;4.10;;
39788;SDS011;25478;42.626;23.320;2022-10-30T12:23:18;8.70;;;4.80;;
39788;SDS011;25478;42.626;23.320;2022-10-30T12:25:54;11.88;;;5.82;;
39788;SDS011;25478;42.626;23.320;2022-10-30T12:28:23;14.30;;;6.70;;
39788;SDS011;25478;42.626;23.320;2022-10-30T12:30:52;7.43;;;4.70;;
39788;SDS011;25478;42.626;23.320;2022-10-30T12:33:55;8.68;;;3.50;;
39788;SDS011;25478;42.626;23.320;2022-10-30T12:36:44;9.20;;;3.60;;
39788;SDS011;25478;42.626;23.320;2022-10-30T12:39:23;7.72;;;3.50;;
39788;SDS011;25478;42.626;23.320;2022-10-30T12:41:59;7.85;;;3.50;;
39788;SDS011;25478;42.626;23.320;2022-10-30T12:44:28;7.97;;;3.53;;
39788;SDS011;25478;42.626;23.320;2022-10-30T12:47:03;7.10;;;3.38;;
39788;SDS011;25478;42.626;23.320;2022-10-30T12:52:15;12.25;;;4.40;;
39788;SDS011;25478;42.626;23.320;2022-10-30T12:57:18;9.77;;;3.67;;
39788;SDS011;25478;42.626;23.320;2022-10-30T13:04:56;7.57;;;3.20;;
39788;SDS011;25478;42.626;23.320;2022-10-30T13:07:30;6.22;;;2.92;;
39788;SDS011;25478;42.626;23.320;2022-10-30T13:12:41;5.97;;;2.63;;
39788;SDS011;25478;42.626;23.320;2022-10-30T13:15:20;6.70;;;3.15;;
39788;SDS011;25478;42.626;23.320;2022-10-30T13:17:50;5.97;;;2.97;;
39788;SDS011;25478;42.626;23.320;2022-10-30T13:20:15;4.93;;;2.50;;
39788;SDS011;25478;42.626;23.320;2022-10-30T13:22:45;7.55;;;3.00;;
39788;SDS011;25478;42.626;23.320;2022-10-30T13:25:23;5.95;;;2.63;;
39788;SDS011;25478;42.626;23.320;2022-10-30T13:36:14;5.18;;;2.50;;
39788;SDS011;25478;42.626;23.320;2022-10-30T13:41:49;6.35;;;2.70;;
39788;SDS011;25478;42.626;23.320;2022-10-30T13:52:18;8.07;;;4.00;;
39788;SDS011;25478;42.626;23.320;2022-10-30T14:07:59;7.68;;;4.43;;
39788;SDS011;25478;42.626;23.320;2022-10-30T14:18:43;10.68;;;3.60;;
39788;SDS011;25478;42.626;23.320;2022-10-30T14:24:13;8.55;;;3.75;;
39788;SDS011;25478;42.626;23.320;2022-10-30T14:26:41;9.57;;;3.33;;
39788;SDS011;25478;42.626;23.320;2022-10-30T14:34:45;11.38;;;3.70;;
39788;SDS011;25478;42.626;23.320;2022-10-30T14:39:51;16.50;;;3.75;;
39788;SDS011;25478;42.626;23.320;2022-10-30T14:50:17;5.43;;;2.63;;
39788;SDS011;25478;42.626;23.320;2022-10-30T14:55:30;6.85;;;2.70;;
39788;SDS011;25478;42.626;23.320;2022-10-30T15:08:38;8.75;;;3.97;;
39788;SDS011;25478;42.626;23.320;2022-10-30T15:11:34;8.63;;;3.15;;
39788;SDS011;25478;42.626;23.320;2022-10-30T15:16:48;5.40;;;3.28;;
39788;SDS011;25478;42.626;23.320;2022-10-30T15:19:17;8.05;;;3.00;;
39788;SDS011;25478;42.626;23.320;2022-10-30T15:21:46;11.77;;;5.45;;
39788;SDS011;25478;42.626;23.320;2022-10-30T15:24:17;11.88;;;5.05;;
39788;SDS011;25478;42.626;23.320;2022-10-30T15:26:49;16.80;;;5.80;;
39788;SDS011;25478;42.626;23.320;2022-10-30T15:29:26;14.93;;;5.55;;
39788;SDS011;25478;42.626;23.320;2022-10-30T15:31:59;14.45;;;5.65;;
39788;SDS011;25478;42.626;23.320;2022-10-30T15:34:29;10.45;;;5.40;;
39788;SDS011;25478;42.626;23.320;2022-10-30T15:36:57;15.73;;;7.63;;
39788;SDS011;25478;42.626;23.320;2022-10-30T15:39:22;15.55;;;5.25;;
39788;SDS011;25478;42.626;23.320;2022-10-30T15:41:52;10.63;;;5.95;;
39788;SDS011;25478;42.626;23.320;2022-10-30T15:44:22;8.32;;;4.72;;
39788;SDS011;25478;42.626;23.320;2022-10-30T15:46:53;10.27;;;4.03;;
39788;SDS011;25478;42.626;23.320;2022-10-30T15:49:34;9.68;;;4.22;;
39788;SDS011;25478;42.626;23.320;2022-10-30T15:52:03;9.82;;;4.60;;
39788;SDS011;25478;42.626;23.320;2022-10-30T15:54:38;13.75;;;6.60;;
39788;SDS011;25478;42.626;23.320;2022-10-30T15:57:10;14.45;;;6.65;;
39788;SDS011;25478;42.626;23.320;2022-10-30T15:59:46;13.65;;;5.72;;
39788;SDS011;25478;42.626;23.320;2022-10-30T16:02:19;9.43;;;5.38;;
39788;SDS011;25478;42.626;23.320;2022-10-30T16:04:46;8.57;;;4.40;;
39788;SDS011;25478;42.626;23.320;2022-10-30T16:07:16;9.45;;;5.57;;
39788;SDS011;25478;42.626;23.320;2022-10-30T16:09:54;17.60;;;8.57;;
39788;SDS011;25478;42.626;23.320;2022-10-30T16:12:24;17.27;;;7.35;;
39788;SDS011;25478;42.626;23.320;2022-10-30T16:14:51;13.20;;;6.35;;
39788;SDS011;25478;42.626;23.320;2022-10-30T16:17:20;10.93;;;5.30;;
39788;SDS011;25478;42.626;23.320;2022-10-30T16:19:46;7.78;;;4.13;;
39788;SDS011;25478;42.626;23.320;2022-10-30T16:22:21;10.00;;;4.75;;
39788;SDS011;25478;42.626;23.320;2022-10-30T16:24:51;7.63;;;4.10;;
39788;SDS011;25478;42.626;23.320;2022-10-30T16:27:19;9.52;;;4.00;;
39788;SDS011;25478;42.626;23.320;2022-10-30T16:29:48;6.75;;;3.53;;
39788;SDS011;25478;42.626;23.320;2022-10-30T16:32:16;9.70;;;3.75;;
39788;SDS011;25478;42.626;23.320;2022-10-30T16:34:44;8.55;;;3.70;;
39788;SDS011;25478;42.626;23.320;2022-10-30T16:37:24;8.00;;;3.58;;
39788;SDS011;25478;42.626;23.320;2022-10-30T16:40:03;7.80;;;3.72;;
39788;SDS011;25478;42.626;23.320;2022-10-30T16:42:37;8.32;;;3.15;;
39788;SDS011;25478;42.626;23.320;2022-10-30T16:45:18;6.95;;;3.92;;
39788;SDS011;25478;42.626;23.320;2022-10-30T16:47:52;9.10;;;4.10;;
39788;SDS011;25478;42.626;23.320;2022-10-30T16:50:22;9.15;;;4.25;;
39788;SDS011;25478;42.626;23.320;2022-10-30T16:53:03;11.47;;;4.20;;
39788;SDS011;25478;42.626;23.320;2022-10-30T16:55:31;7.13;;;4.05;;
39788;SDS011;25478;42.626;23.320;2022-10-30T16:57:57;8.00;;;4.00;;
39788;SDS011;25478;42.626;23.320;2022-10-30T17:00:25;7.15;;;3.78;;
39788;SDS011;25478;42.626;23.320;2022-10-30T17:02:52;8.50;;;4.10;;
39788;SDS011;25478;42.626;23.320;2022-10-30T17:05:27;10.20;;;3.72;;
39788;SDS011;25478;42.626;23.320;2022-10-30T17:08:05;16.27;;;5.95;;
39788;SDS011;25478;42.626;23.320;2022-10-30T17:10:56;8.00;;;4.70;;
39788;SDS011;25478;42.626;23.320;2022-10-30T17:19:00;8.88;;;4.05;;
39788;SDS011;25478;42.626;23.320;2022-10-30T17:21:47;8.43;;;4.45;;
39788;SDS011;25478;42.626;23.320;2022-10-30T17:24:20;7.57;;;3.88;;
39788;SDS011;25478;42.626;23.320;2022-10-30T17:26:55;9.52;;;3.75;;
39788;SDS011;25478;42.626;23.320;2022-10-30T17:32:10;7.95;;;4.32;;
39788;SDS011;25478;42.626;23.320;2022-10-30T17:34:44;8.40;;;4.35;;
39788;SDS011;25478;42.626;23.320;2022-10-30T17:37:10;7.03;;;4.30;;
39788;SDS011;25478;42.626;23.320;2022-10-30T17:39:35;8.52;;;3.92;;
39788;SDS011;25478;42.626;23.320;2022-10-30T17:42:01;11.40;;;5.05;;
39788;SDS011;25478;42.626;23.320;2022-10-30T17:44:26;8.45;;;4.50;;
39788;SDS011;25478;42.626;23.320;2022-10-30T17:46:55;7.60;;;3.97;;
39788;SDS011;25478;42.626;23.320;2022-10-30T17:49:24;8.48;;;4.20;;
39788;SDS011;25478;42.626;23.320;2022-10-30T17:51:53;8.15;;;4.28;;
39788;SDS011;25478;42.626;23.320;2022-10-30T17:54:18;8.63;;;3.90;;
39788;SDS011;25478;42.626;23.320;2022-10-30T17:56:44;8.13;;;3.70;;
39788;SDS011;25478;42.626;23.320;2022-10-30T17:59:10;7.30;;;3.90;;
39788;SDS011;25478;42.626;23.320;2022-10-30T18:01:35;7.03;;;3.70;;
39788;SDS011;25478;42.626;23.320;2022-10-30T18:04:01;7.40;;;3.42;;
39788;SDS011;25478;42.626;23.320;2022-10-30T18:06:27;5.93;;;3.63;;